Jamaica, NY (11433)

9:39 AM EST on February 06, 2016 (GMT -0500)
Addisleigh Park | | Change Station
CLOSE
Current Station
Personal Weather Station
Location: New York, NY
Elevation: 36 ft
Nearby Weather Stations
Active Advisory: Special Statement Active Notice: Record Report

Elev 36 ft 40.70 °N, 73.77 °W | Updated 16 seconds ago

Mostly Cloudy
Mostly Cloudy
36.7 °F
Feels Like 37 °F
N
1.8
Wind Variable Wind from ESE
Gusts 2.5 mph

Today
High -- | Low -- °F
--% Chance of Precip.
Yesterday
High -- | Low -- °F
Precip. -- in
Pressure 30.45 in
Visibility 10.0 miles
Clouds Few 3500 ft
Mostly Cloudy 25000 ft
Windchill 37 °F
Dew Point 19 °F
Humidity 49%
Rainfall 0.00 in
Snow Depth Not available.
7:00 AM 5:18 PM
Waning Crescent, 5% visible
METAR KJFK 061351Z 27008KT 10SM FEW035 BKN250 01/M07 A3045 RMK AO2 SLP310 T00061072 $
Pressure 30.45 in
Visibility 10.0 miles
Clouds Few 3500 ft
Mostly Cloudy 25000 ft
Windchill 37 °F
Dew Point 19 °F
Humidity 49%
Rainfall 0.00 in
Snow Depth Not available.
7:00 AM 5:18 PM
Waning Crescent, 5% visible
METAR KJFK 061351Z 27008KT 10SM FEW035 BKN250 01/M07 A3045 RMK AO2 SLP310 T00061072 $

10-Day Weather Forecast

Almanac

Astronomy

Feb. 06, 2016 Rise Set
Actual Time
Civil Twilight
Nautical Twilight
Astronomical Twilight
Moon
Length of Visible Light
Length of Day
Tomorrow will be .
, % of the Moon is Illuminated

Today's Extremes

State Highs State Lows

Community

WunderPhotos

Upload Photos

1,890,983 photos uploaded!

WunderBlog® & News

Nearby

Air Quality

  Air Quality AQ Index Pollutant
Not available.

Snow Depth

Station Depth Elevation

Earthquake Activity

City Distance Mag. Time & Date
Minimum magnitude displayed is 2.5.

Coastal Water Temperatures

Place Temperature

Stations

Nearby Weather Stations

Station Location Temp. Windchill Dew Point Humidity Wind Precip. Elev Updated Type
                   

Watches & Warnings

Special Statement
Issued: 9:24 PM EST Feb. 5, 2016 – National Weather Service

Standing water from melted snow will refreeze tonight. Icy spots
are anticipated... especially on untreated surfaces. Use extra
caution when out driving or walking tonight into Saturday morning.